createdAt,value
2023-02-23T00:00:44.028Z,450.00
2023-02-23T00:01:44.023Z,448.00
2023-02-23T00:02:44.072Z,449.00
2023-02-23T00:03:44.013Z,449.00
2023-02-23T00:04:43.964Z,447.00
2023-02-23T00:05:43.955Z,449.00
2023-02-23T00:06:43.946Z,450.00
2023-02-23T00:07:43.926Z,453.00
2023-02-23T00:08:43.907Z,452.00
2023-02-23T00:09:43.891Z,453.00
2023-02-23T00:10:43.879Z,450.00
2023-02-23T00:11:43.876Z,447.00
2023-02-23T00:12:43.928Z,446.00
2023-02-23T00:13:43.841Z,445.00
2023-02-23T00:14:43.835Z,448.00
2023-02-23T00:15:43.809Z,451.00
2023-02-23T00:16:43.875Z,452.00
2023-02-23T00:17:43.789Z,455.00
2023-02-23T00:18:43.820Z,455.00
2023-02-23T00:19:44.140Z,457.00
2023-02-23T00:20:43.746Z,453.00
2023-02-23T00:21:43.751Z,452.00
2023-02-23T00:22:43.734Z,451.00
2023-02-23T00:23:43.699Z,450.00
2023-02-23T00:24:43.688Z,448.00
2023-02-23T00:25:43.659Z,445.00
2023-02-23T00:26:43.649Z,445.00
2023-02-23T00:27:43.627Z,444.00
2023-02-23T00:28:43.627Z,443.00
2023-02-23T00:29:43.595Z,441.00
2023-02-23T00:30:43.608Z,440.00
2023-02-23T00:31:43.678Z,437.00
2023-02-23T00:32:43.630Z,437.00
2023-02-23T00:33:43.529Z,437.00
2023-02-23T00:34:43.525Z,442.00
2023-02-23T00:35:43.500Z,443.00
2023-02-23T00:36:43.495Z,441.00
2023-02-23T00:37:43.470Z,440.00
2023-02-23T00:38:43.460Z,437.00
2023-02-23T00:39:43.442Z,438.00
2023-02-23T00:40:43.428Z,439.00
2023-02-23T00:41:43.408Z,438.00
2023-02-23T00:42:43.398Z,437.00
2023-02-23T00:43:43.367Z,438.00
2023-02-23T00:44:43.351Z,437.00
2023-02-23T00:45:43.390Z,436.00
2023-02-23T00:46:43.326Z,436.00
2023-02-23T00:47:43.325Z,435.00
2023-02-23T00:48:43.286Z,436.00
2023-02-23T00:49:43.251Z,437.00
2023-02-23T00:50:43.242Z,438.00
2023-02-23T00:51:43.218Z,437.00
2023-02-23T00:52:43.212Z,440.00
2023-02-23T00:53:43.190Z,439.00
2023-02-23T00:54:43.180Z,437.00
2023-02-23T00:55:43.141Z,437.00
2023-02-23T00:56:43.131Z,436.00
2023-02-23T00:57:43.108Z,434.00
2023-02-23T00:58:43.093Z,436.00
2023-02-23T00:59:43.078Z,436.00
2023-02-23T01:00:43.057Z,434.00
2023-02-23T01:01:43.117Z,434.00
2023-02-23T01:02:43.109Z,431.00
2023-02-23T01:03:43.006Z,433.00
2023-02-23T01:04:42.982Z,430.00
2023-02-23T01:05:42.968Z,429.00
2023-02-23T01:06:42.963Z,429.00
2023-02-23T01:07:42.950Z,430.00
2023-02-23T01:08:42.924Z,430.00
2023-02-23T01:09:42.905Z,431.00
2023-02-23T01:10:42.896Z,429.00
2023-02-23T01:11:42.885Z,428.00
2023-02-23T01:12:42.886Z,427.00
2023-02-23T01:13:42.875Z,428.00
2023-02-23T01:14:42.867Z,426.00
2023-02-23T01:15:42.869Z,427.00
2023-02-23T01:16:42.822Z,426.00
2023-02-23T01:17:42.802Z,427.00
2023-02-23T01:18:42.812Z,428.00
2023-02-23T01:19:42.768Z,428.00
2023-02-23T01:20:42.761Z,424.00
2023-02-23T01:21:42.763Z,424.00
2023-02-23T01:22:42.734Z,425.00
2023-02-23T01:23:42.729Z,425.00
2023-02-23T01:24:42.707Z,425.00
2023-02-23T01:25:42.686Z,426.00
2023-02-23T01:26:42.672Z,424.00
2023-02-23T01:27:42.655Z,427.00
2023-02-23T01:28:42.648Z,426.00
2023-02-23T01:29:42.643Z,428.00
2023-02-23T01:30:42.791Z,429.00
2023-02-23T01:31:42.772Z,426.00
2023-02-23T01:32:42.604Z,423.00
2023-02-23T01:33:42.598Z,423.00
2023-02-23T01:34:42.598Z,422.00
2023-02-23T01:35:42.595Z,420.00
2023-02-23T01:36:42.580Z,419.00
2023-02-23T01:37:42.580Z,419.00
2023-02-23T01:38:42.559Z,417.00
2023-02-23T01:39:42.539Z,418.00
2023-02-23T01:40:42.529Z,418.00
2023-02-23T01:41:42.619Z,416.00
2023-02-23T01:42:42.514Z,415.00
2023-02-23T01:43:42.498Z,414.00
2023-02-23T01:44:42.486Z,417.00
2023-02-23T01:45:42.484Z,420.00
2023-02-23T01:46:42.467Z,420.00
2023-02-23T01:47:42.452Z,426.00
2023-02-23T01:48:42.440Z,426.00
2023-02-23T01:49:42.444Z,427.00
2023-02-23T01:50:42.431Z,428.00
2023-02-23T01:51:42.414Z,425.00
2023-02-23T01:52:42.403Z,421.00
2023-02-23T01:53:42.394Z,419.00
2023-02-23T01:54:42.384Z,415.00
2023-02-23T01:55:42.373Z,415.00
2023-02-23T01:56:42.364Z,413.00
2023-02-23T01:57:42.347Z,414.00
2023-02-23T01:58:42.337Z,414.00
2023-02-23T01:59:42.317Z,412.00
2023-02-23T02:00:42.307Z,411.00
2023-02-23T02:01:42.381Z,412.00
2023-02-23T02:02:42.273Z,413.00
2023-02-23T02:03:42.262Z,414.00
2023-02-23T02:04:42.314Z,413.00
2023-02-23T02:05:42.239Z,412.00
2023-02-23T02:06:42.224Z,410.00
2023-02-23T02:07:42.224Z,411.00
2023-02-23T02:08:42.217Z,412.00
2023-02-23T02:09:42.195Z,411.00
2023-02-23T02:10:42.169Z,411.00
2023-02-23T02:11:42.151Z,411.00
2023-02-23T02:12:42.151Z,410.00
2023-02-23T02:13:42.134Z,411.00
2023-02-23T02:14:42.123Z,411.00
2023-02-23T02:15:42.106Z,411.00
2023-02-23T02:16:42.074Z,413.00
2023-02-23T02:17:42.059Z,410.00
2023-02-23T02:18:42.059Z,410.00
2023-02-23T02:19:42.040Z,413.00
2023-02-23T02:20:42.029Z,412.00
2023-02-23T02:21:42.001Z,410.00
2023-02-23T02:22:41.999Z,412.00
2023-02-23T02:23:41.972Z,412.00
2023-02-23T02:24:42.052Z,412.00
2023-02-23T02:25:41.947Z,410.00
2023-02-23T02:26:41.924Z,409.00
2023-02-23T02:27:41.913Z,408.00
2023-02-23T02:28:41.902Z,406.00
2023-02-23T02:29:41.882Z,407.00
2023-02-23T02:30:41.886Z,408.00
2023-02-23T02:31:41.922Z,408.00
2023-02-23T02:32:41.820Z,411.00
2023-02-23T02:33:41.807Z,409.00
2023-02-23T02:34:41.792Z,411.00
2023-02-23T02:35:41.782Z,410.00
2023-02-23T02:36:41.760Z,412.00
2023-02-23T02:37:41.732Z,413.00
2023-02-23T02:38:41.718Z,414.00
2023-02-23T02:39:41.693Z,411.00
2023-02-23T02:40:41.681Z,408.00
2023-02-23T02:41:41.665Z,410.00
2023-02-23T02:42:41.650Z,409.00
2023-02-23T02:43:41.632Z,408.00
2023-02-23T02:44:41.621Z,407.00
2023-02-23T02:45:41.599Z,411.00
2023-02-23T02:46:41.614Z,409.00
2023-02-23T02:47:41.578Z,412.00
2023-02-23T02:48:41.555Z,412.00
2023-02-23T02:49:41.542Z,412.00
2023-02-23T02:50:41.521Z,411.00
2023-02-23T02:51:41.510Z,410.00
2023-02-23T02:52:41.482Z,410.00
2023-02-23T02:53:41.471Z,409.00
2023-02-23T02:54:41.481Z,407.00
2023-02-23T02:55:41.449Z,404.00
2023-02-23T02:56:41.444Z,405.00
2023-02-23T02:57:41.425Z,407.00
2023-02-23T02:58:41.407Z,406.00
2023-02-23T02:59:41.403Z,407.00
2023-02-23T03:00:41.376Z,406.00
2023-02-23T03:01:41.430Z,408.00
2023-02-23T03:02:41.362Z,410.00
2023-02-23T03:03:41.329Z,408.00
2023-02-23T03:04:41.318Z,405.00
2023-02-23T03:05:41.304Z,406.00
2023-02-23T03:06:41.297Z,406.00
2023-02-23T03:07:41.267Z,407.00
2023-02-23T03:08:41.259Z,408.00
2023-02-23T03:09:41.241Z,406.00
2023-02-23T03:10:41.224Z,407.00
2023-02-23T03:11:41.218Z,409.00
2023-02-23T03:12:41.194Z,409.00
2023-02-23T03:13:41.189Z,409.00
2023-02-23T03:14:41.171Z,409.00
2023-02-23T03:15:41.185Z,409.00
2023-02-23T03:16:41.144Z,410.00
2023-02-23T03:17:41.145Z,408.00
2023-02-23T03:18:41.127Z,405.00
2023-02-23T03:19:41.142Z,405.00
2023-02-23T03:20:41.106Z,406.00
2023-02-23T03:21:41.140Z,405.00
2023-02-23T03:22:41.083Z,405.00
2023-02-23T03:23:41.088Z,405.00
2023-02-23T03:24:41.058Z,404.00
2023-02-23T03:25:41.054Z,401.00
2023-02-23T03:26:41.031Z,401.00
2023-02-23T03:27:41.023Z,397.00
2023-02-23T03:28:41.003Z,398.00
2023-02-23T03:29:41.000Z,402.00
2023-02-23T03:30:41.001Z,407.00
2023-02-23T03:31:41.022Z,406.00
2023-02-23T03:32:41.005Z,406.00
2023-02-23T03:33:40.944Z,405.00
2023-02-23T03:34:40.928Z,405.00
2023-02-23T03:35:40.914Z,403.00
2023-02-23T03:36:40.900Z,400.00
2023-02-23T03:37:40.893Z,400.00
2023-02-23T03:38:40.872Z,399.00
2023-02-23T03:39:40.857Z,396.00
2023-02-23T03:40:40.843Z,397.00
2023-02-23T03:41:40.837Z,397.00
2023-02-23T03:42:40.814Z,395.00
2023-02-23T03:43:40.810Z,396.00
2023-02-23T03:44:40.788Z,392.00
2023-02-23T03:45:40.845Z,393.00
2023-02-23T03:46:40.781Z,392.00
2023-02-23T03:47:40.758Z,389.00
2023-02-23T03:48:40.748Z,386.00
2023-02-23T03:49:40.726Z,389.00
2023-02-23T03:50:40.716Z,390.00
2023-02-23T03:51:40.729Z,391.00
2023-02-23T03:52:40.704Z,389.00
2023-02-23T03:53:40.711Z,391.00
2023-02-23T03:54:40.683Z,392.00
2023-02-23T03:55:40.692Z,393.00
2023-02-23T03:56:40.748Z,391.00
2023-02-23T03:57:40.656Z,389.00
2023-02-23T03:58:40.658Z,383.00
2023-02-23T03:59:40.645Z,385.00
2023-02-23T04:00:40.640Z,388.00
2023-02-23T04:01:40.649Z,388.00
2023-02-23T04:02:40.643Z,388.00
2023-02-23T04:03:40.666Z,386.00
2023-02-23T04:04:40.597Z,385.00
2023-02-23T04:05:40.582Z,386.00
2023-02-23T04:06:40.562Z,388.00
2023-02-23T04:07:40.546Z,389.00
2023-02-23T04:08:40.535Z,389.00
2023-02-23T04:09:40.538Z,387.00
2023-02-23T04:10:40.517Z,387.00
2023-02-23T04:11:40.521Z,386.00
2023-02-23T04:12:40.525Z,385.00
2023-02-23T04:13:40.490Z,386.00
2023-02-23T04:14:40.497Z,383.00
2023-02-23T04:15:40.487Z,384.00
2023-02-23T04:16:40.533Z,385.00
2023-02-23T04:17:40.459Z,384.00
2023-02-23T04:18:40.454Z,386.00
2023-02-23T04:19:40.459Z,385.00
2023-02-23T04:20:40.483Z,385.00
2023-02-23T04:21:40.455Z,384.00
2023-02-23T04:22:40.434Z,389.00
2023-02-23T04:23:40.433Z,386.00
2023-02-23T05:20:40.147Z,382.00
2023-02-23T05:21:40.153Z,377.00
2023-02-23T05:22:40.147Z,377.00
2023-02-23T05:23:40.134Z,375.00
2023-02-23T05:24:40.124Z,378.00
2023-02-23T05:25:40.126Z,380.00
2023-02-23T05:26:40.129Z,378.00
2023-02-23T05:27:40.135Z,375.00
2023-02-23T05:28:40.133Z,373.00
2023-02-23T05:29:40.130Z,374.00
2023-02-23T05:30:40.150Z,372.00
2023-02-23T05:31:40.230Z,373.00
2023-02-23T05:32:40.110Z,372.00
2023-02-23T05:33:40.105Z,373.00
2023-02-23T05:34:40.095Z,374.00
2023-02-23T05:35:40.096Z,372.00
2023-02-23T05:36:40.103Z,370.00
2023-02-23T05:37:40.097Z,371.00
2023-02-23T05:38:40.081Z,367.00
2023-02-23T05:39:40.081Z,368.00
2023-02-23T05:40:40.068Z,369.00
2023-02-23T05:41:40.069Z,369.00
2023-02-23T05:42:40.066Z,370.00
2023-02-23T05:43:40.064Z,370.00
2023-02-23T05:44:40.054Z,372.00
2023-02-23T05:45:40.047Z,373.00
2023-02-23T05:46:40.046Z,373.00
2023-02-23T05:47:40.063Z,373.00
2023-02-23T05:48:40.046Z,373.00
2023-02-23T05:49:40.043Z,371.00
2023-02-23T05:50:40.041Z,372.00
2023-02-23T05:51:40.035Z,371.00
2023-02-23T05:52:40.026Z,373.00
2023-02-23T05:53:40.027Z,373.00
2023-02-23T05:54:40.015Z,372.00
2023-02-23T05:55:40.010Z,372.00
2023-02-23T05:56:39.996Z,371.00
2023-02-23T05:57:40.002Z,372.00
2023-02-23T05:58:40.003Z,371.00
2023-02-23T05:59:39.997Z,370.00
2023-02-23T06:00:39.992Z,366.00
2023-02-23T06:01:39.987Z,369.00
2023-02-23T06:02:40.003Z,368.00
2023-02-23T06:03:39.978Z,367.00
2023-02-23T06:04:39.982Z,368.00
2023-02-23T06:05:39.950Z,369.00
2023-02-23T06:06:39.949Z,367.00
2023-02-23T06:07:39.943Z,368.00
2023-02-23T06:08:39.938Z,366.00
2023-02-23T06:09:39.921Z,366.00
2023-02-23T06:10:39.912Z,368.00
2023-02-23T06:11:39.902Z,369.00
2023-02-23T06:12:39.903Z,374.00
2023-02-23T06:13:39.889Z,377.00
2023-02-23T06:14:39.892Z,374.00
2023-02-23T06:15:39.904Z,374.00
2023-02-23T06:16:40.019Z,373.00
2023-02-23T06:17:39.856Z,372.00
2023-02-23T06:18:39.853Z,372.00
2023-02-23T06:19:39.853Z,370.00
2023-02-23T06:20:40.455Z,369.00
2023-02-23T06:21:39.826Z,370.00
2023-02-23T06:22:39.819Z,370.00
2023-02-23T06:23:39.802Z,369.00
2023-02-23T06:24:39.788Z,367.00
2023-02-23T06:25:39.792Z,368.00
2023-02-23T06:26:39.798Z,369.00
2023-02-23T06:27:39.769Z,370.00
2023-02-23T06:28:39.748Z,373.00
2023-02-23T06:29:39.763Z,373.00
2023-02-23T06:30:39.775Z,371.00
2023-02-23T06:31:39.830Z,369.00
2023-02-23T06:32:39.786Z,372.00
2023-02-23T06:33:39.730Z,373.00
2023-02-23T06:34:39.706Z,425.00
2023-02-23T06:35:39.693Z,478.00
2023-02-23T06:36:39.666Z,539.00
2023-02-23T06:37:39.669Z,564.00
2023-02-23T06:38:39.657Z,578.00
2023-02-23T06:39:39.641Z,588.00
2023-02-23T06:40:39.620Z,600.00
2023-02-23T06:41:39.608Z,613.00
2023-02-23T06:42:39.598Z,671.00
2023-02-23T06:43:39.611Z,687.00
2023-02-23T06:44:39.581Z,723.00
2023-02-23T06:45:39.563Z,745.00
2023-02-23T06:46:39.588Z,757.00
2023-02-23T06:47:39.541Z,794.00
2023-02-23T06:48:39.530Z,812.00
2023-02-23T06:49:39.498Z,815.00
2023-02-23T06:50:39.476Z,818.00
2023-02-23T06:51:39.470Z,844.00
2023-02-23T06:52:39.444Z,902.00
2023-02-23T06:53:39.433Z,905.00
2023-02-23T06:54:39.407Z,927.00
2023-02-23T06:55:39.386Z,928.00
2023-02-23T06:56:39.361Z,941.00
2023-02-23T06:57:39.350Z,985.00
2023-02-23T06:58:39.341Z,1002.00
2023-02-23T06:59:39.346Z,1014.00
2023-02-23T07:00:39.277Z,1012.00
2023-02-23T07:01:39.280Z,1020.00
2023-02-23T07:02:39.235Z,1044.00
2023-02-23T07:03:39.236Z,1065.00
2023-02-23T07:04:39.263Z,1070.00
2023-02-23T07:05:39.157Z,1088.00
2023-02-23T07:06:39.132Z,1109.00
2023-02-23T07:07:39.116Z,1119.00
2023-02-23T07:08:39.163Z,1133.00
2023-02-23T07:09:39.063Z,1146.00
2023-02-23T07:10:39.056Z,1153.00
2023-02-23T07:11:39.026Z,1165.00
2023-02-23T07:12:38.997Z,1184.00
2023-02-23T07:13:38.953Z,1196.00
2023-02-23T07:14:38.926Z,1219.00
2023-02-23T07:15:38.910Z,1218.00
2023-02-23T07:16:38.966Z,1222.00
2023-02-23T07:17:38.843Z,1270.00
2023-02-23T07:18:38.825Z,1294.00
2023-02-23T07:19:38.785Z,1301.00
2023-02-23T07:20:38.766Z,1308.00
2023-02-23T07:21:38.787Z,1314.00
2023-02-23T07:22:39.947Z,1350.00
2023-02-23T07:23:38.698Z,1359.00
2023-02-23T07:24:38.642Z,1355.00
2023-02-23T07:25:38.597Z,1367.00
2023-02-23T07:26:38.582Z,1391.00
2023-02-23T07:27:38.556Z,1403.00
2023-02-23T07:28:38.509Z,1404.00
2023-02-23T07:29:38.490Z,1419.00
2023-02-23T07:30:38.470Z,1429.00
2023-02-23T07:31:38.533Z,1442.00
2023-02-23T07:32:38.455Z,1457.00
2023-02-23T07:33:38.370Z,1464.00
2023-02-23T07:34:38.318Z,1464.00
2023-02-23T07:35:38.327Z,1484.00
2023-02-23T07:36:38.256Z,1522.00
2023-02-23T07:37:38.228Z,1543.00
2023-02-23T07:38:38.195Z,1558.00
2023-02-23T07:39:38.220Z,1561.00
2023-02-23T07:40:38.126Z,1554.00
2023-02-23T07:41:38.084Z,1555.00
2023-02-23T07:42:38.053Z,1661.00
2023-02-23T07:43:38.023Z,1665.00
2023-02-23T07:44:38.007Z,1649.00
2023-02-23T07:45:38.036Z,1653.00
2023-02-23T07:46:37.929Z,1669.00
2023-02-23T07:47:37.884Z,1648.00
2023-02-23T07:48:37.870Z,1628.00
2023-02-23T07:49:37.806Z,1623.00
2023-02-23T07:50:37.773Z,1622.00
2023-02-23T07:51:37.772Z,1535.00
2023-02-23T07:52:37.716Z,1533.00
2023-02-23T07:53:37.657Z,1532.00
2023-02-23T07:54:37.622Z,1538.00
2023-02-23T07:55:37.582Z,1554.00
2023-02-23T07:56:37.881Z,1585.00
2023-02-23T07:57:37.531Z,1577.00
2023-02-23T07:58:37.493Z,1545.00
2023-02-23T07:59:37.457Z,1523.00
2023-02-23T08:00:37.448Z,1531.00
2023-02-23T08:01:37.374Z,1566.00
2023-02-23T08:02:37.334Z,1570.00
2023-02-23T08:03:37.329Z,1519.00
2023-02-23T08:04:37.373Z,1510.00
2023-02-23T08:05:37.269Z,1518.00
2023-02-23T08:06:37.219Z,1559.00
2023-02-23T08:07:37.170Z,1583.00
2023-02-23T08:08:37.153Z,1564.00
2023-02-23T08:09:37.107Z,1549.00
2023-02-23T08:10:37.106Z,1540.00
2023-02-23T08:11:37.045Z,1530.00
2023-02-23T08:12:37.090Z,1536.00
2023-02-23T08:13:36.998Z,1566.00
2023-02-23T08:14:36.944Z,1542.00
2023-02-23T08:15:36.900Z,1534.00
2023-02-23T08:16:36.882Z,1534.00
2023-02-23T08:17:37.007Z,1549.00
2023-02-23T08:18:36.798Z,1564.00
2023-02-23T08:19:36.780Z,1562.00
2023-02-23T08:20:36.699Z,1558.00
2023-02-23T08:21:36.666Z,1542.00
2023-02-23T08:22:48.374Z,1557.00
2023-02-23T08:23:37.577Z,1581.00
2023-02-23T08:24:36.549Z,1586.00
2023-02-23T08:25:36.565Z,1546.00
2023-02-23T08:26:36.509Z,1531.00
2023-02-23T08:27:36.437Z,1530.00
2023-02-23T08:28:36.415Z,1548.00
2023-02-23T08:29:36.381Z,1572.00
2023-02-23T08:30:36.534Z,1564.00
2023-02-23T08:31:36.417Z,1563.00
2023-02-23T08:32:36.317Z,1554.00
2023-02-23T08:33:36.234Z,1548.00
2023-02-23T08:34:36.208Z,1566.00
2023-02-23T08:35:36.178Z,1570.00
2023-02-23T08:36:36.153Z,1493.00
2023-02-23T08:37:36.089Z,1490.00
2023-02-23T08:38:36.064Z,1472.00
2023-02-23T08:39:36.041Z,1468.00
2023-02-23T08:40:36.024Z,1451.00
2023-02-23T08:41:35.961Z,1313.00
2023-02-23T08:42:35.945Z,1245.00
2023-02-23T08:43:35.904Z,1109.00
2023-02-23T08:44:35.891Z,1122.00
2023-02-23T08:45:35.835Z,1203.00
2023-02-23T08:46:35.800Z,1131.00
2023-02-23T08:47:35.826Z,974.00
2023-02-23T08:48:35.730Z,859.00
2023-02-23T08:49:35.701Z,854.00
2023-02-23T08:50:35.666Z,855.00
2023-02-23T08:51:35.651Z,797.00
2023-02-23T08:52:35.613Z,765.00
2023-02-23T08:53:35.572Z,682.00
2023-02-23T08:54:35.571Z,687.00
2023-02-23T08:55:35.546Z,691.00
2023-02-23T08:56:35.564Z,692.00
2023-02-23T08:57:35.476Z,680.00
2023-02-23T08:58:35.425Z,661.00
2023-02-23T08:59:35.392Z,656.00
2023-02-23T09:00:35.385Z,646.00
2023-02-23T09:01:35.447Z,634.00
2023-02-23T09:02:35.311Z,619.00
2023-02-23T09:03:37.095Z,608.00
2023-02-23T09:04:35.318Z,600.00
2023-02-23T09:05:35.267Z,583.00
2023-02-23T09:06:35.228Z,573.00
2023-02-23T09:07:35.187Z,568.00
2023-02-23T09:08:35.151Z,565.00
2023-02-23T09:09:35.114Z,562.00
2023-02-23T09:10:35.093Z,557.00
2023-02-23T09:11:35.073Z,553.00
2023-02-23T09:12:35.043Z,543.00
2023-02-23T09:13:35.005Z,536.00
2023-02-23T09:14:34.987Z,533.00
2023-02-23T09:15:34.967Z,529.00
2023-02-23T09:16:34.969Z,532.00
2023-02-23T09:17:34.902Z,530.00
2023-02-23T09:18:34.877Z,525.00
2023-02-23T09:19:34.836Z,521.00
2023-02-23T09:20:34.809Z,516.00
2023-02-23T09:21:34.793Z,513.00
2023-02-23T09:22:36.752Z,512.00
2023-02-23T09:23:34.771Z,508.00
2023-02-23T09:24:34.709Z,505.00
2023-02-23T09:25:34.688Z,501.00
2023-02-23T09:26:34.691Z,501.00
2023-02-23T09:27:34.737Z,500.00
2023-02-23T09:28:34.725Z,497.00
2023-02-23T09:29:34.577Z,497.00
2023-02-23T09:30:34.616Z,499.00
2023-02-23T09:31:34.633Z,498.00
2023-02-23T09:32:34.697Z,496.00
2023-02-23T09:33:34.497Z,580.00
2023-02-23T09:34:36.371Z,573.00
2023-02-23T09:35:34.432Z,567.00
2023-02-23T09:36:34.554Z,565.00
2023-02-23T09:37:34.389Z,566.00
2023-02-23T09:38:34.361Z,568.00
2023-02-23T09:39:38.646Z,569.00
2023-02-23T09:40:34.361Z,567.00
2023-02-23T09:41:34.297Z,566.00
2023-02-23T09:42:34.251Z,566.00
2023-02-23T09:43:34.229Z,564.00
2023-02-23T09:44:34.208Z,564.00
2023-02-23T09:45:34.176Z,564.00
2023-02-23T09:46:34.165Z,566.00
2023-02-23T09:47:34.165Z,611.00
2023-02-23T09:48:34.131Z,654.00
2023-02-23T09:49:34.102Z,688.00
2023-02-23T09:50:34.074Z,731.00
2023-02-23T09:51:34.036Z,768.00
2023-02-23T09:52:34.263Z,831.00
2023-02-23T09:53:34.291Z,848.00
2023-02-23T09:54:33.957Z,863.00
2023-02-23T09:55:33.942Z,871.00
2023-02-23T09:56:33.948Z,879.00
2023-02-23T09:57:33.866Z,906.00
2023-02-23T09:58:33.854Z,923.00
2023-02-23T09:59:33.810Z,947.00
2023-02-23T10:00:33.788Z,962.00
2023-02-23T10:01:33.829Z,971.00
2023-02-23T10:02:33.749Z,986.00
2023-02-23T10:03:33.682Z,1008.00
2023-02-23T10:04:33.727Z,1024.00
2023-02-23T10:05:33.701Z,1033.00
2023-02-23T10:06:33.617Z,1040.00
2023-02-23T10:07:33.581Z,1054.00
2023-02-23T10:08:33.522Z,1064.00
2023-02-23T10:09:33.495Z,1081.00
2023-02-23T10:10:33.463Z,1094.00
2023-02-23T10:11:33.415Z,1129.00
2023-02-23T10:12:33.398Z,1136.00
2023-02-23T10:13:33.398Z,1154.00
2023-02-23T10:14:33.332Z,1163.00
2023-02-23T10:15:33.300Z,1162.00
2023-02-23T10:16:33.258Z,1167.00
2023-02-23T10:17:33.199Z,1212.00
2023-02-23T10:18:45.644Z,1240.00
2023-02-23T10:19:34.122Z,1239.00
2023-02-23T10:20:33.100Z,1251.00
2023-02-23T10:21:33.066Z,1257.00
2023-02-23T10:22:33.042Z,1264.00
2023-02-23T10:23:33.023Z,1273.00
2023-02-23T10:24:32.947Z,1288.00
2023-02-23T10:25:32.906Z,1308.00
2023-02-23T10:26:32.870Z,1315.00
2023-02-23T10:27:32.859Z,1317.00
2023-02-23T10:28:32.806Z,1342.00
2023-02-23T10:29:32.749Z,1374.00
2023-02-23T10:30:32.744Z,1418.00
2023-02-23T10:31:32.745Z,1434.00
2023-02-23T10:32:32.657Z,1438.00
2023-02-23T10:33:32.570Z,1443.00
2023-02-23T10:34:32.550Z,1440.00
2023-02-23T10:35:32.478Z,1438.00
2023-02-23T10:36:32.469Z,1504.00
2023-02-23T10:37:32.407Z,1601.00
2023-02-23T10:38:32.367Z,1635.00
2023-02-23T10:39:32.315Z,1758.00
2023-02-23T10:40:32.266Z,1883.00
2023-02-23T10:41:32.222Z,1942.00
2023-02-23T10:42:32.235Z,1956.00
2023-02-23T10:43:32.137Z,1922.00
2023-02-23T10:44:32.144Z,1825.00
2023-02-23T10:45:32.044Z,1681.00
2023-02-23T10:46:32.522Z,1692.00
2023-02-23T10:47:31.941Z,1657.00
2023-02-23T10:48:31.944Z,1641.00
2023-02-23T10:49:31.842Z,1648.00
2023-02-23T10:50:31.838Z,1647.00
2023-02-23T10:51:31.748Z,1620.00
2023-02-23T10:52:32.821Z,1606.00
2023-02-23T10:53:31.646Z,1601.00
2023-02-23T10:54:31.586Z,1593.00
2023-02-23T10:55:31.553Z,1586.00
2023-02-23T10:56:31.490Z,1578.00
2023-02-23T10:57:31.461Z,1575.00
2023-02-23T10:58:31.412Z,1573.00
2023-02-23T10:59:31.357Z,1569.00
2023-02-23T11:00:31.319Z,1565.00
2023-02-23T11:01:31.292Z,1574.00
2023-02-23T11:02:31.302Z,1584.00
2023-02-23T11:03:31.197Z,1593.00
2023-02-23T11:04:31.210Z,1595.00
2023-02-23T11:05:31.111Z,1616.00
2023-02-23T11:06:31.028Z,1613.00
2023-02-23T11:07:30.977Z,1609.00
2023-02-23T11:08:30.970Z,1601.00
2023-02-23T11:09:45.075Z,1607.00
2023-02-23T11:10:31.818Z,1622.00
2023-02-23T11:11:30.763Z,1675.00
2023-02-23T11:12:30.712Z,1633.00
2023-02-23T11:13:30.682Z,1641.00
2023-02-23T11:14:30.619Z,1638.00
2023-02-23T11:15:48.540Z,1638.00
2023-02-23T11:16:30.568Z,1630.00
2023-02-23T11:17:30.549Z,1635.00
2023-02-23T11:18:30.424Z,1637.00
2023-02-23T11:19:30.381Z,1628.00
2023-02-23T11:20:30.337Z,1621.00
2023-02-23T11:21:30.292Z,1621.00
2023-02-23T11:22:30.252Z,1622.00
2023-02-23T11:23:30.224Z,1627.00
2023-02-23T11:24:30.177Z,1636.00
2023-02-23T11:25:30.133Z,1659.00
2023-02-23T11:26:30.125Z,1660.00
2023-02-23T11:27:30.038Z,1663.00
2023-02-23T11:28:29.989Z,1679.00
2023-02-23T11:29:29.954Z,1688.00
2023-02-23T11:30:29.924Z,1690.00
2023-02-23T11:31:29.916Z,1689.00
2023-02-23T11:32:29.948Z,1693.00
2023-02-23T11:33:29.791Z,1700.00
2023-02-23T11:34:29.732Z,1717.00
2023-02-23T11:35:29.667Z,1739.00
2023-02-23T11:36:29.810Z,1787.00
2023-02-23T11:37:29.563Z,1859.00
2023-02-23T11:38:29.645Z,1830.00
2023-02-23T11:39:29.467Z,1537.00
2023-02-23T11:40:29.486Z,1275.00
2023-02-23T11:41:29.423Z,696.00
2023-02-23T11:42:29.368Z,862.00
2023-02-23T11:43:29.355Z,625.00
2023-02-23T11:44:29.327Z,720.00
2023-02-23T11:45:30.301Z,546.00
2023-02-23T11:46:29.438Z,765.00
2023-02-23T11:47:29.309Z,548.00
2023-02-23T11:48:29.320Z,642.00
2023-02-23T11:49:29.323Z,630.00
2023-02-23T11:50:29.317Z,534.00
2023-02-23T11:51:29.346Z,536.00
2023-02-23T11:52:29.354Z,531.00
2023-02-23T11:53:29.365Z,517.00
2023-02-23T11:54:29.390Z,507.00
2023-02-23T11:55:29.395Z,514.00
2023-02-23T11:56:29.372Z,508.00
2023-02-23T11:57:29.366Z,487.00
2023-02-23T11:58:29.421Z,502.00
2023-02-23T11:59:29.356Z,486.00
2023-02-23T12:00:29.354Z,481.00
2023-02-23T12:01:29.343Z,467.00
2023-02-23T12:02:29.375Z,461.00
2023-02-23T12:03:29.337Z,474.00
2023-02-23T12:04:29.400Z,475.00
2023-02-23T12:05:29.334Z,453.00
2023-02-23T12:06:29.671Z,399.00
2023-02-23T12:07:29.339Z,434.00
2023-02-23T12:08:29.349Z,439.00
2023-02-23T12:09:29.375Z,449.00
2023-02-23T12:10:29.411Z,466.00
2023-02-23T12:11:29.393Z,444.00
2023-02-23T12:12:29.416Z,422.00
2023-02-23T12:13:29.427Z,401.00
2023-02-23T12:14:29.466Z,398.00
2023-02-23T12:15:29.547Z,391.00
2023-02-23T12:16:29.575Z,385.00
2023-02-23T12:17:29.596Z,379.00
2023-02-23T12:18:29.642Z,394.00
2023-02-23T12:19:29.709Z,402.00
2023-02-23T12:20:29.775Z,395.00
2023-02-23T12:21:29.749Z,396.00
2023-02-23T12:22:29.767Z,430.00
2023-02-23T12:23:29.811Z,559.00
2023-02-23T12:24:29.806Z,570.00
2023-02-23T12:25:29.815Z,625.00
2023-02-23T12:26:29.815Z,603.00
2023-02-23T12:27:29.814Z,585.00
2023-02-23T12:28:29.794Z,573.00
2023-02-23T12:29:29.794Z,574.00
2023-02-23T12:30:29.819Z,572.00
2023-02-23T12:31:29.807Z,594.00
2023-02-23T12:32:29.784Z,591.00
2023-02-23T12:33:29.753Z,588.00
2023-02-23T12:34:29.724Z,589.00
2023-02-23T12:35:31.192Z,589.00
2023-02-23T12:36:29.667Z,583.00
2023-02-23T12:37:29.637Z,585.00
2023-02-23T12:38:29.644Z,588.00
2023-02-23T12:39:29.594Z,589.00
2023-02-23T12:40:29.588Z,587.00
2023-02-23T12:41:29.544Z,591.00
2023-02-23T12:42:29.527Z,590.00
2023-02-23T12:43:29.533Z,590.00
2023-02-23T12:44:29.461Z,587.00
2023-02-23T12:45:29.465Z,591.00
2023-02-23T12:46:29.439Z,591.00
2023-02-23T12:47:29.362Z,592.00
2023-02-23T12:48:29.336Z,591.00
2023-02-23T12:49:29.312Z,592.00
2023-02-23T12:50:29.304Z,591.00
2023-02-23T12:51:29.270Z,588.00
2023-02-23T12:52:29.233Z,586.00
2023-02-23T12:53:29.209Z,586.00
2023-02-23T12:54:29.185Z,581.00
2023-02-23T12:55:29.171Z,581.00
2023-02-23T12:56:29.134Z,578.00
2023-02-23T12:57:29.114Z,577.00
2023-02-23T12:58:29.095Z,577.00
2023-02-23T12:59:30.026Z,579.00
2023-02-23T13:00:29.132Z,581.00
2023-02-23T13:01:28.990Z,580.00
2023-02-23T13:02:29.040Z,579.00
2023-02-23T13:03:28.931Z,578.00
2023-02-23T13:04:28.912Z,577.00
2023-02-23T13:05:28.911Z,573.00
2023-02-23T13:06:28.841Z,576.00
2023-02-23T13:07:28.825Z,575.00
2023-02-23T13:08:28.785Z,572.00
2023-02-23T13:09:28.738Z,573.00
2023-02-23T13:10:28.720Z,570.00
2023-02-23T13:11:28.673Z,573.00
2023-02-23T13:12:28.671Z,572.00
2023-02-23T13:13:28.613Z,571.00
2023-02-23T13:14:28.567Z,573.00
2023-02-23T13:15:28.562Z,575.00
2023-02-23T13:16:28.524Z,575.00
2023-02-23T13:17:28.491Z,576.00
2023-02-23T13:18:28.461Z,575.00